Time;durP1;ratioP1;P1;durP2;ratioP2;P2;SDS_P1;SDS_P2;PMS_P1;PMS_P2;Temp;Humidity;BMP_temperature;BMP_pressure;BME280_temperature;BME280_humidity;BME280_pressure;Samples;Min_cycle;Max_cycle;Signal;HPM_P1;HPM_P2
2023/09/01 00:02:15;;;;;;;42.67;15.37;;;;;;;;;;5052085;28;20491;-65
2023/09/01 00:04:40;;;;;;;54.43;17.87;;;;;;;;;;5052141;28;20060;-69
2023/09/01 00:07:05;;;;;;;46.63;17.17;;;;;;;;;;5051803;28;20021;-69
2023/09/01 00:09:31;;;;;;;44.13;17.00;;;;;;;;;;5063573;28;20760;-69
2023/09/01 00:11:56;;;;;;;46.30;16.60;;;;;;;;;;5071071;28;20114;-69
2023/09/01 00:14:21;;;;;;;47.73;17.00;;;;;;;;;;5063295;28;20032;-69
2023/09/01 00:16:46;;;;;;;41.97;16.03;;;;;;;;;;5071324;28;20025;-69
2023/09/01 00:19:12;;;;;;;44.37;16.47;;;;;;;;;;5071011;28;20021;-69
2023/09/01 00:21:37;;;;;;;45.20;16.87;;;;;;;;;;5074807;28;20016;-69
2023/09/01 00:24:03;;;;;;;45.60;17.60;;;;;;;;;;5075145;28;20020;-69
2023/09/01 00:26:28;;;;;;;48.77;18.20;;;;;;;;;;5051963;28;20545;-69
2023/09/01 00:28:54;;;;;;;48.13;17.93;;;;;;;;;;5055904;28;20024;-69
2023/09/01 00:31:20;;;;;;;53.90;19.33;;;;;;;;;;5056296;28;20025;-69
2023/09/01 00:33:45;;;;;;;55.43;19.03;;;;;;;;;;5056174;28;20453;-69
2023/09/01 00:36:10;;;;;;;48.00;18.30;;;;;;;;;;5056266;28;20029;-69
2023/09/01 00:38:35;;;;;;;47.83;18.83;;;;;;;;;;5056615;28;20488;-69
2023/09/01 00:41:01;;;;;;;47.67;17.30;;;;;;;;;;5074809;28;20103;-69
2023/09/01 00:43:26;;;;;;;51.83;19.17;;;;;;;;;;5074432;28;20024;-68
2023/09/01 00:45:51;;;;;;;41.97;16.13;;;;;;;;;;5074742;28;20043;-69
2023/09/01 00:48:17;;;;;;;42.63;16.37;;;;;;;;;;5074637;28;20516;-69
2023/09/01 00:50:46;;;;;;;40.93;15.77;;;;;;;;;;5058084;28;20028;-68
2023/09/01 00:53:11;;;;;;;43.90;16.67;;;;;;;;;;5055720;28;20028;-69
2023/09/01 00:55:37;;;;;;;40.00;16.83;;;;;;;;;;5055813;28;20470;-69
2023/09/01 00:58:02;;;;;;;46.90;16.63;;;;;;;;;;5055501;28;20017;-69
2023/09/01 01:03:31;;;;;;;44.60;16.97;;;;;;;;;;5070525;22;20053;-61
2023/09/01 01:05:56;;;;;;;46.67;16.60;;;;;;;;;;5037949;28;20047;-67
2023/09/01 01:08:36;;;;;;;57.27;17.83;;;;;;;;;;5035719;28;20025;-67
2023/09/01 01:11:06;;;;;;;49.30;17.33;;;;;;;;;;5035366;28;20029;-67
2023/09/01 01:13:34;;;;;;;53.70;17.20;;;;;;;;;;5034827;28;20485;-67
2023/09/01 01:16:00;;;;;;;52.97;17.10;;;;;;;;;;5035580;28;20477;-67
2023/09/01 01:18:26;;;;;;;55.90;16.20;;;;;;;;;;5035443;28;20022;-67
2023/09/01 01:20:55;;;;;;;74.07;17.50;;;;;;;;;;5035242;28;20024;-67
2023/09/01 01:23:21;;;;;;;41.53;15.50;;;;;;;;;;5035052;28;20101;-67
2023/09/01 01:25:47;;;;;;;40.33;16.10;;;;;;;;;;5035486;28;20666;-67
2023/09/01 01:28:13;;;;;;;42.80;15.40;;;;;;;;;;5035121;28;20028;-67
2023/09/01 01:30:38;;;;;;;43.20;16.13;;;;;;;;;;5035206;28;20017;-67
2023/09/01 01:33:04;;;;;;;43.20;17.17;;;;;;;;;;5035249;28;20034;-67
2023/09/01 01:35:33;;;;;;;40.57;15.77;;;;;;;;;;5035246;28;20049;-67
2023/09/01 01:38:03;;;;;;;48.67;16.93;;;;;;;;;;5034882;28;20024;-67
2023/09/01 01:40:29;;;;;;;48.47;18.40;;;;;;;;;;5035070;28;20049;-67
2023/09/01 01:42:56;;;;;;;45.90;18.30;;;;;;;;;;5033428;28;20499;-67
2023/09/01 01:45:22;;;;;;;47.03;17.90;;;;;;;;;;5034976;28;20071;-67
2023/09/01 01:47:48;;;;;;;48.60;18.37;;;;;;;;;;5034911;28;20497;-67
2023/09/01 01:50:13;;;;;;;40.50;15.60;;;;;;;;;;5039568;28;20131;-67
2023/09/01 01:52:38;;;;;;;38.57;15.57;;;;;;;;;;5041663;28;20079;-67
2023/09/01 01:55:07;;;;;;;51.73;18.03;;;;;;;;;;5034858;28;20071;-67
2023/09/01 01:57:32;;;;;;;46.10;17.40;;;;;;;;;;5033744;28;20104;-67
2023/09/01 01:59:58;;;;;;;52.33;18.33;;;;;;;;;;5051796;28;20064;-66
2023/09/01 02:02:23;;;;;;;53.00;17.97;;;;;;;;;;5053342;28;20017;-67
2023/09/01 02:04:48;;;;;;;48.40;15.17;;;;;;;;;;5038816;28;20103;-67
2023/09/01 02:07:13;;;;;;;49.23;17.40;;;;;;;;;;5034444;28;20056;-61
2023/09/01 02:09:38;;;;;;;45.10;17.23;;;;;;;;;;5034648;28;20029;-62
2023/09/01 02:12:04;;;;;;;44.30;18.37;;;;;;;;;;5034693;28;20025;-62
2023/09/01 02:14:30;;;;;;;43.90;17.40;;;;;;;;;;5034188;28;20035;-61
2023/09/01 02:16:58;;;;;;;59.53;19.27;;;;;;;;;;5034192;28;20022;-61
2023/09/01 02:19:23;;;;;;;57.40;21.20;;;;;;;;;;5033983;28;20021;-61
2023/09/01 02:21:48;;;;;;;57.00;20.07;;;;;;;;;;5034328;28;20385;-63
2023/09/01 02:24:14;;;;;;;62.80;20.77;;;;;;;;;;5033953;28;20409;-61
2023/09/01 02:26:39;;;;;;;67.33;23.07;;;;;;;;;;5034067;28;20482;-62
2023/09/01 02:29:05;;;;;;;79.17;22.33;;;;;;;;;;5034338;28;20029;-62
2023/09/01 02:31:30;;;;;;;71.90;21.90;;;;;;;;;;5038912;28;20167;-61
2023/09/01 02:33:55;;;;;;;47.53;16.60;;;;;;;;;;5034110;28;20064;-62
2023/09/01 02:36:25;;;;;;;64.47;21.70;;;;;;;;;;5034150;28;20033;-62
2023/09/01 02:38:51;;;;;;;65.93;23.87;;;;;;;;;;5033857;28;20017;-61
2023/09/01 02:41:16;;;;;;;66.43;20.53;;;;;;;;;;5033659;28;20020;-62
2023/09/01 02:43:41;;;;;;;76.47;24.07;;;;;;;;;;5033831;28;20029;-61
2023/09/01 02:46:06;;;;;;;76.37;25.43;;;;;;;;;;5033960;28;20029;-61
2023/09/01 02:48:32;;;;;;;76.97;25.13;;;;;;;;;;5033659;28;20078;-62
2023/09/01 02:50:58;;;;;;;71.27;24.70;;;;;;;;;;5033910;28;20075;-61
2023/09/01 02:53:23;;;;;;;85.17;26.13;;;;;;;;;;5033659;28;20024;-62
2023/09/01 02:55:49;;;;;;;84.43;25.43;;;;;;;;;;5033792;28;20395;-62
2023/09/01 02:58:14;;;;;;;86.67;25.93;;;;;;;;;;5033402;28;20021;-61
2023/09/01 03:00:39;;;;;;;84.63;24.70;;;;;;;;;;5032888;28;20060;-62
2023/09/01 03:03:06;;;;;;;60.40;21.70;;;;;;;;;;5033284;28;20036;-62
2023/09/01 03:05:31;;;;;;;72.87;21.93;;;;;;;;;;5032895;28;20037;-62
2023/09/01 03:07:58;;;;;;;57.93;18.80;;;;;;;;;;5033245;28;20029;-62
2023/09/01 03:10:23;;;;;;;64.47;22.20;;;;;;;;;;5033149;28;20022;-62
2023/09/01 03:12:48;;;;;;;57.47;19.13;;;;;;;;;;5039261;28;20029;-62
2023/09/01 03:15:15;;;;;;;49.00;17.93;;;;;;;;;;5051863;28;20070;-62
2023/09/01 03:17:40;;;;;;;63.70;19.90;;;;;;;;;;5051966;28;20039;-66
2023/09/01 03:20:08;;;;;;;65.23;19.47;;;;;;;;;;5029269;28;20452;-67
2023/09/01 03:22:34;;;;;;;111.80;21.70;;;;;;;;;;5033322;28;20162;-66
2023/09/01 03:24:59;;;;;;;88.33;21.03;;;;;;;;;;5032100;28;20725;-67
2023/09/01 03:27:25;;;;;;;85.23;24.57;;;;;;;;;;5032776;28;20017;-67
2023/09/01 03:29:51;;;;;;;82.93;22.53;;;;;;;;;;5032852;28;20468;-67
2023/09/01 03:32:16;;;;;;;72.30;22.37;;;;;;;;;;5032968;28;20376;-67
2023/09/01 03:34:42;;;;;;;71.00;22.73;;;;;;;;;;5033044;28;20026;-66
2023/09/01 03:37:11;;;;;;;68.40;22.30;;;;;;;;;;5051478;28;20428;-67
2023/09/01 03:39:37;;;;;;;59.17;19.50;;;;;;;;;;5051556;28;20024;-67
2023/09/01 03:42:02;;;;;;;54.03;20.03;;;;;;;;;;5051133;28;20384;-67
2023/09/01 03:44:27;;;;;;;65.53;20.37;;;;;;;;;;5051701;28;20029;-67
2023/09/01 03:46:52;;;;;;;63.23;23.17;;;;;;;;;;5032958;28;20376;-66
2023/09/01 03:49:18;;;;;;;61.33;23.63;;;;;;;;;;5032702;28;20543;-67
2023/09/01 03:51:43;;;;;;;70.20;24.40;;;;;;;;;;5031714;28;20029;-67
2023/09/01 03:54:08;;;;;;;69.33;23.97;;;;;;;;;;5032012;28;20723;-67
2023/09/01 03:56:33;;;;;;;78.43;24.90;;;;;;;;;;5032464;28;20426;-67
2023/09/01 03:58:59;;;;;;;71.10;24.47;;;;;;;;;;5032697;28;20492;-67
2023/09/01 04:01:24;;;;;;;68.63;24.40;;;;;;;;;;5051313;28;20396;-67
2023/09/01 04:03:49;;;;;;;76.17;26.53;;;;;;;;;;5050590;28;20412;-67
2023/09/01 04:06:15;;;;;;;88.80;27.10;;;;;;;;;;5050915;28;20052;-67
2023/09/01 04:08:41;;;;;;;88.83;26.60;;;;;;;;;;5036546;28;20104;-67
2023/09/01 04:11:06;;;;;;;75.20;25.83;;;;;;;;;;5032208;28;20017;-67
2023/09/01 04:13:31;;;;;;;91.43;27.77;;;;;;;;;;5032105;28;20484;-67
2023/09/01 04:15:57;;;;;;;95.03;27.83;;;;;;;;;;5033647;28;20033;-67
2023/09/01 04:18:22;;;;;;;96.87;28.80;;;;;;;;;;5032290;28;20393;-66
2023/09/01 04:20:52;;;;;;;79.77;28.03;;;;;;;;;;5032612;28;20022;-67
2023/09/01 04:23:17;;;;;;;72.30;26.37;;;;;;;;;;5032298;28;20023;-67
2023/09/01 04:25:49;;;;;;;84.77;27.13;;;;;;;;;;5031999;28;20025;-66
2023/09/01 04:28:15;;;;;;;77.93;26.47;;;;;;;;;;5032256;28;20021;-61
2023/09/01 04:30:42;;;;;;;75.53;25.97;;;;;;;;;;5032106;28;20025;-61
2023/09/01 04:33:07;;;;;;;73.00;24.67;;;;;;;;;;5032719;28;20079;-61
2023/09/01 04:35:32;;;;;;;65.23;22.73;;;;;;;;;;5032052;28;20461;-61
2023/09/01 04:37:58;;;;;;;72.77;22.77;;;;;;;;;;5045742;28;20017;-61
2023/09/01 04:40:23;;;;;;;75.13;23.33;;;;;;;;;;5050377;28;20017;-62
2023/09/01 04:42:49;;;;;;;96.03;25.43;;;;;;;;;;5051165;28;20021;-62
2023/09/01 04:45:14;;;;;;;94.83;26.37;;;;;;;;;;5050385;28;20100;-62
2023/09/01 04:47:39;;;;;;;101.00;27.20;;;;;;;;;;5050566;28;20108;-63
2023/09/01 04:50:04;;;;;;;350.20;31.77;;;;;;;;;;5051007;28;20021;-61
2023/09/01 04:52:30;;;;;;;143.47;30.23;;;;;;;;;;5048890;28;20025;-62
2023/09/01 04:54:55;;;;;;;82.00;27.23;;;;;;;;;;5031601;28;20071;-62
2023/09/01 04:57:20;;;;;;;89.87;27.47;;;;;;;;;;5028604;28;20057;-61
2023/09/01 04:59:45;;;;;;;101.87;28.63;;;;;;;;;;5028263;28;20053;-61
2023/09/01 05:02:11;;;;;;;81.90;26.13;;;;;;;;;;5033537;28;20022;-61
2023/09/01 05:04:36;;;;;;;93.73;25.83;;;;;;;;;;5030285;28;20049;-61
2023/09/01 05:07:01;;;;;;;73.70;23.63;;;;;;;;;;5041485;28;20033;-61
2023/09/01 05:09:27;;;;;;;72.93;24.37;;;;;;;;;;5035971;28;20389;-61
2023/09/01 05:11:52;;;;;;;66.70;25.53;;;;;;;;;;5041712;28;20053;-62
2023/09/01 05:14:17;;;;;;;73.73;25.43;;;;;;;;;;5031260;28;20045;-62
2023/09/01 05:16:42;;;;;;;76.23;26.13;;;;;;;;;;5035723;28;20693;-61
2023/09/01 05:19:07;;;;;;;65.83;23.63;;;;;;;;;;5035287;28;20487;-61
2023/09/01 05:21:33;;;;;;;67.40;23.20;;;;;;;;;;5035417;28;20017;-61
2023/09/01 05:23:58;;;;;;;55.37;19.67;;;;;;;;;;5035336;28;20400;-61
2023/09/01 05:26:23;;;;;;;57.93;22.33;;;;;;;;;;5034646;28;20404;-60
2023/09/01 05:28:48;;;;;;;52.53;21.67;;;;;;;;;;5034888;28;20102;-61
2023/09/01 05:31:14;;;;;;;48.33;20.50;;;;;;;;;;5035203;28;20079;-60
2023/09/01 05:33:39;;;;;;;46.70;20.87;;;;;;;;;;5035238;28;20036;-60
2023/09/01 05:36:04;;;;;;;47.57;21.67;;;;;;;;;;5034881;28;20101;-61
2023/09/01 05:38:29;;;;;;;46.60;21.27;;;;;;;;;;5034435;28;20010;-65
2023/09/01 05:40:56;;;;;;;45.30;22.07;;;;;;;;;;5035021;28;20029;-64
2023/09/01 05:43:21;;;;;;;44.83;22.30;;;;;;;;;;5042426;28;20021;-64
2023/09/01 05:45:47;;;;;;;40.73;19.67;;;;;;;;;;5044045;28;20108;-63
2023/09/01 05:48:12;;;;;;;54.37;19.30;;;;;;;;;;5034563;28;20029;-64
2023/09/01 05:50:37;;;;;;;47.23;15.00;;;;;;;;;;5034551;28;20021;-64
2023/09/01 05:53:03;;;;;;;32.40;13.73;;;;;;;;;;5034572;28;20051;-64
2023/09/01 05:55:29;;;;;;;28.37;13.10;;;;;;;;;;5034567;28;20018;-63
2023/09/01 05:57:55;;;;;;;23.30;11.97;;;;;;;;;;5034471;28;20022;-63
2023/09/01 06:00:20;;;;;;;17.15;8.98;;;;;;;;;;5036086;28;20020;-63
2023/09/01 06:02:45;;;;;;;10.65;8.30;;;;;;;;;;5034669;28;20108;-63
2023/09/01 06:05:10;;;;;;;9.32;6.57;;;;;;;;;;5034001;28;20409;-63
2023/09/01 06:07:36;;;;;;;8.55;5.68;;;;;;;;;;5034565;28;20036;-62
2023/09/01 06:10:01;;;;;;;8.77;5.13;;;;;;;;;;5034587;28;20442;-63
2023/09/01 06:12:26;;;;;;;7.60;5.32;;;;;;;;;;5034328;28;20029;-63
2023/09/01 06:14:51;;;;;;;8.05;5.53;;;;;;;;;;5042153;28;20024;-63
2023/09/01 06:17:17;;;;;;;7.78;5.63;;;;;;;;;;5045451;28;20025;-62
2023/09/01 06:19:42;;;;;;;10.88;6.03;;;;;;;;;;5046457;28;20032;-63
2023/09/01 06:22:07;;;;;;;13.82;6.93;;;;;;;;;;5053071;28;20086;-62
2023/09/01 06:24:32;;;;;;;9.23;6.43;;;;;;;;;;5052780;28;20019;-63
2023/09/01 06:26:58;;;;;;;9.00;6.85;;;;;;;;;;5052455;28;20481;-62
2023/09/01 06:29:23;;;;;;;9.82;7.47;;;;;;;;;;5052496;28;20377;-63
2023/09/01 06:31:48;;;;;;;11.77;8.50;;;;;;;;;;5039015;28;20438;-62
2023/09/01 06:34:13;;;;;;;11.77;8.07;;;;;;;;;;5034120;28;20029;-62
2023/09/01 06:36:39;;;;;;;9.52;7.13;;;;;;;;;;5034284;28;20029;-63
2023/09/01 06:39:04;;;;;;;13.45;9.25;;;;;;;;;;5034262;28;20021;-63
2023/09/01 06:41:29;;;;;;;11.55;8.60;;;;;;;;;;5033969;28;20473;-63
2023/09/01 06:43:54;;;;;;;12.13;9.30;;;;;;;;;;5033873;28;20099;-62
2023/09/01 06:46:20;;;;;;;14.40;9.48;;;;;;;;;;5015847;28;20533;-63
2023/09/01 06:48:45;;;;;;;12.98;9.75;;;;;;;;;;5034346;28;20034;-59
2023/09/01 06:51:10;;;;;;;13.75;9.65;;;;;;;;;;5033847;28;20033;-58
2023/09/01 06:53:35;;;;;;;13.10;9.90;;;;;;;;;;5033794;28;20038;-58
2023/09/01 06:56:01;;;;;;;13.32;9.82;;;;;;;;;;5033940;28;20100;-58
2023/09/01 06:58:26;;;;;;;12.13;9.63;;;;;;;;;;5033704;28;20035;-58
2023/09/01 07:00:51;;;;;;;16.08;10.20;;;;;;;;;;5033328;28;20026;-58
2023/09/01 07:03:17;;;;;;;13.27;9.23;;;;;;;;;;5032331;28;20033;-57
2023/09/01 07:05:42;;;;;;;12.82;9.90;;;;;;;;;;5033515;28;20037;-58
2023/09/01 07:08:09;;;;;;;13.50;8.95;;;;;;;;;;5033444;28;20063;-58
2023/09/01 07:10:34;;;;;;;12.43;9.55;;;;;;;;;;5032741;28;20489;-58
2023/09/01 07:13:00;;;;;;;13.90;10.57;;;;;;;;;;5033657;28;20037;-58
2023/09/01 07:15:25;;;;;;;13.85;10.48;;;;;;;;;;5033296;28;20017;-58
2023/09/01 07:17:50;;;;;;;15.98;11.50;;;;;;;;;;5033431;28;20484;-58
2023/09/01 07:20:16;;;;;;;15.57;11.32;;;;;;;;;;5033193;28;20029;-58
2023/09/01 07:22:41;;;;;;;15.10;11.82;;;;;;;;;;5033595;28;20108;-58
2023/09/01 07:25:09;;;;;;;16.05;11.45;;;;;;;;;;5033133;28;20079;-58
2023/09/01 07:27:34;;;;;;;15.52;11.55;;;;;;;;;;5033075;28;20109;-58
2023/09/01 07:30:00;;;;;;;17.60;11.57;;;;;;;;;;5033117;28;20113;-58
2023/09/01 07:32:25;;;;;;;18.02;11.90;;;;;;;;;;5033209;28;20025;-58
2023/09/01 07:34:50;;;;;;;14.73;11.15;;;;;;;;;;5033119;28;20029;-59
2023/09/01 07:37:16;;;;;;;17.65;12.30;;;;;;;;;;5033133;28;20033;-58
2023/09/01 07:39:41;;;;;;;16.90;11.93;;;;;;;;;;5033422;28;20029;-59
2023/09/01 07:42:07;;;;;;;16.10;11.48;;;;;;;;;;5032814;28;20414;-58
2023/09/01 07:44:32;;;;;;;17.65;11.60;;;;;;;;;;5032607;28;20033;-58
2023/09/01 07:46:58;;;;;;;16.30;11.60;;;;;;;;;;5032908;28;20120;-58
2023/09/01 07:49:23;;;;;;;16.45;12.13;;;;;;;;;;5033249;28;20025;-57
2023/09/01 07:51:49;;;;;;;17.58;12.05;;;;;;;;;;5033190;28;20033;-58
2023/09/01 07:54:14;;;;;;;17.75;11.55;;;;;;;;;;5033112;28;20052;-57
2023/09/01 07:56:40;;;;;;;17.60;11.00;;;;;;;;;;5032781;28;20021;-58
2023/09/01 07:59:05;;;;;;;14.77;10.85;;;;;;;;;;5032742;28;20151;-63
2023/09/01 08:01:30;;;;;;;16.00;10.45;;;;;;;;;;5032680;28;20013;-63
2023/09/01 08:03:59;;;;;;;15.38;10.57;;;;;;;;;;5032937;28;20045;-63
2023/09/01 08:06:26;;;;;;;13.27;10.15;;;;;;;;;;5032460;28;20541;-64
2023/09/01 08:08:51;;;;;;;15.88;10.25;;;;;;;;;;5031580;28;20116;-64
2023/09/01 08:11:16;;;;;;;13.77;10.10;;;;;;;;;;5032796;28;20072;-64
2023/09/01 08:13:41;;;;;;;14.73;10.50;;;;;;;;;;5032582;28;20030;-63
2023/09/01 08:16:07;;;;;;;16.77;10.02;;;;;;;;;;5032425;28;20025;-64
2023/09/01 08:18:32;;;;;;;13.20;9.48;;;;;;;;;;5032473;28;20021;-64
2023/09/01 08:21:01;;;;;;;16.65;9.50;;;;;;;;;;5032277;28;20038;-65
2023/09/01 08:23:27;;;;;;;20.48;10.38;;;;;;;;;;5032723;28;20542;-65
2023/09/01 08:25:52;;;;;;;14.00;9.27;;;;;;;;;;5032496;28;20029;-65
2023/09/01 08:28:17;;;;;;;15.00;9.77;;;;;;;;;;5032631;28;20050;-65
2023/09/01 08:30:43;;;;;;;13.93;10.13;;;;;;;;;;5032640;28;20461;-64
2023/09/01 08:33:08;;;;;;;17.08;10.55;;;;;;;;;;5032814;28;20053;-64
2023/09/01 08:35:34;;;;;;;15.38;9.77;;;;;;;;;;5032379;28;20102;-65
2023/09/01 08:37:59;;;;;;;12.05;8.90;;;;;;;;;;5032665;28;20389;-65
2023/09/01 08:40:25;;;;;;;15.30;9.70;;;;;;;;;;5034316;28;20028;-66
2023/09/01 08:42:50;;;;;;;17.65;10.32;;;;;;;;;;5036308;28;20036;-65
2023/09/01 08:45:16;;;;;;;16.05;10.75;;;;;;;;;;5036238;28;20091;-65
2023/09/01 08:47:45;;;;;;;14.07;10.18;;;;;;;;;;5036397;28;20025;-63
2023/09/01 08:50:11;;;;;;;14.75;9.80;;;;;;;;;;5035998;28;20489;-64
2023/09/01 08:52:38;;;;;;;15.10;10.35;;;;;;;;;;5036378;28;20021;-64
2023/09/01 08:55:04;;;;;;;16.73;10.45;;;;;;;;;;5035941;28;20159;-65
2023/09/01 08:57:30;;;;;;;14.93;11.27;;;;;;;;;;5036262;28;20105;-65
2023/09/01 08:59:55;;;;;;;17.08;11.38;;;;;;;;;;5035983;28;20520;-64
2023/09/01 09:02:21;;;;;;;17.08;11.05;;;;;;;;;;5033809;28;20093;-64
2023/09/01 09:04:46;;;;;;;13.98;10.57;;;;;;;;;;5035274;28;20049;-66
2023/09/01 09:07:16;;;;;;;19.02;12.20;;;;;;;;;;5036047;28;20022;-60
2023/09/01 09:09:50;;;;;;;17.33;12.18;;;;;;;;;;5035845;28;20025;-59
2023/09/01 09:12:16;;;;;;;17.55;11.80;;;;;;;;;;5035572;28;20459;-60
2023/09/01 09:14:50;;;;;;;18.30;13.00;;;;;;;;;;5051731;28;20117;-60
2023/09/01 09:17:15;;;;;;;20.67;13.27;;;;;;;;;;5036688;28;20473;-61
2023/09/01 09:19:49;;;;;;;21.23;13.68;;;;;;;;;;5034600;28;20029;-61
2023/09/01 09:22:15;;;;;;;20.88;13.95;;;;;;;;;;5035874;28;20052;-61
2023/09/01 09:24:41;;;;;;;20.60;13.88;;;;;;;;;;5035578;28;20481;-61
2023/09/01 09:27:06;;;;;;;21.83;13.88;;;;;;;;;;5035570;28;20029;-60
2023/09/01 09:29:39;;;;;;;18.35;12.88;;;;;;;;;;5035373;28;20091;-60
2023/09/01 09:32:16;;;;;;;19.38;14.20;;;;;;;;;;5035060;28;20057;-60
2023/09/01 09:34:42;;;;;;;19.73;13.48;;;;;;;;;;5032785;28;20414;-61
2023/09/01 09:37:14;;;;;;;18.88;14.05;;;;;;;;;;5035309;28;20045;-60
2023/09/01 09:39:41;;;;;;;20.52;13.80;;;;;;;;;;5035775;28;20032;-60
2023/09/01 09:42:06;;;;;;;20.55;13.80;;;;;;;;;;5035380;28;20370;-60
2023/09/01 09:44:35;;;;;;;21.70;14.73;;;;;;;;;;5035044;28;20047;-61
2023/09/01 09:47:02;;;;;;;22.17;14.80;;;;;;;;;;5034983;28;20481;-61
2023/09/01 09:49:30;;;;;;;21.17;14.48;;;;;;;;;;5035072;28;20053;-61
2023/09/01 09:51:57;;;;;;;22.77;14.98;;;;;;;;;;5033908;28;20504;-60
2023/09/01 09:54:23;;;;;;;20.02;14.38;;;;;;;;;;5034552;28;20021;-60
2023/09/01 09:56:49;;;;;;;20.30;14.02;;;;;;;;;;5034938;28;20145;-60
2023/09/01 09:59:17;;;;;;;18.52;13.77;;;;;;;;;;5034880;28;20481;-60
2023/09/01 10:01:44;;;;;;;19.35;12.98;;;;;;;;;;5034924;28;20025;-60
2023/09/01 10:04:09;;;;;;;19.35;13.55;;;;;;;;;;5034429;28;20468;-59
2023/09/01 10:06:35;;;;;;;20.10;13.82;;;;;;;;;;5034902;28;20045;-59
2023/09/01 10:09:07;;;;;;;20.70;13.90;;;;;;;;;;5034704;28;20025;-59
2023/09/01 10:11:33;;;;;;;19.17;13.90;;;;;;;;;;5034645;28;20437;-59
2023/09/01 10:13:59;;;;;;;19.40;13.55;;;;;;;;;;5034899;28;20041;-59
2023/09/01 10:16:24;;;;;;;19.50;13.10;;;;;;;;;;5033326;28;20489;-60
2023/09/01 10:18:50;;;;;;;19.75;13.25;;;;;;;;;;5034127;28;20100;-65
2023/09/01 10:21:18;;;;;;;18.92;13.35;;;;;;;;;;5034383;28;20029;-66
2023/09/01 10:23:44;;;;;;;19.25;12.48;;;;;;;;;;5034039;28;20381;-68
2023/09/01 10:26:26;;;;;;;17.95;12.40;;;;;;;;;;5034394;28;20025;-66
2023/09/01 10:28:55;;;;;;;18.83;12.45;;;;;;;;;;5034795;28;20025;-61
2023/09/01 10:31:20;;;;;;;17.13;11.25;;;;;;;;;;5034617;28;20036;-60
2023/09/01 10:33:46;;;;;;;17.85;11.30;;;;;;;;;;5034090;28;20033;-62
2023/09/01 10:36:14;;;;;;;16.10;8.77;;;;;;;;;;5033971;28;20014;-61
2023/09/01 10:38:40;;;;;;;14.45;10.13;;;;;;;;;;5034525;28;20029;-62
2023/09/01 10:41:06;;;;;;;16.98;10.90;;;;;;;;;;5034302;28;20068;-61
2023/09/01 10:43:31;;;;;;;14.30;8.55;;;;;;;;;;5033896;28;20381;-61
2023/09/01 10:46:26;;;;;;;16.55;9.02;;;;;;;;;;5033972;28;20017;-62
2023/09/01 10:48:51;;;;;;;15.73;9.80;;;;;;;;;;4932961;29;20035;-62
2023/09/01 10:51:17;;;;;;;15.05;8.45;;;;;;;;;;4934893;29;20035;-62
2023/09/01 10:53:42;;;;;;;16.98;9.27;;;;;;;;;;4944879;29;20114;-61
2023/09/01 10:56:08;;;;;;;17.33;9.32;;;;;;;;;;4944982;29;20020;-62
2023/09/01 10:58:37;;;;;;;17.02;9.23;;;;;;;;;;4915725;29;20462;-61
2023/09/01 11:01:20;;;;;;;16.83;8.48;;;;;;;;;;4915606;29;20020;-61
2023/09/01 11:03:46;;;;;;;13.80;8.73;;;;;;;;;;4929551;29;20127;-61
2023/09/01 11:06:11;;;;;;;16.58;9.68;;;;;;;;;;4929961;29;20536;-60
2023/09/01 11:08:36;;;;;;;16.15;10.13;;;;;;;;;;4915545;29;20028;-62
2023/09/01 11:11:08;;;;;;;15.02;8.70;;;;;;;;;;4915684;29;20111;-62
2023/09/01 11:13:33;;;;;;;15.10;9.05;;;;;;;;;;4920870;29;20044;-63
2023/09/01 11:16:06;;;;;;;14.48;9.05;;;;;;;;;;4929304;29;20373;-62
2023/09/01 11:18:32;;;;;;;13.70;8.40;;;;;;;;;;4933293;29;20126;-62
2023/09/01 11:21:00;;;;;;;16.05;8.50;;;;;;;;;;4918454;29;20020;-63
2023/09/01 11:23:27;;;;;;;16.70;9.25;;;;;;;;;;4915362;29;20020;-63
2023/09/01 11:26:03;;;;;;;15.88;9.85;;;;;;;;;;4977612;28;20410;-63
2023/09/01 11:28:29;;;;;;;13.98;8.85;;;;;;;;;;5013924;28;20409;-63
2023/09/01 11:30:55;;;;;;;14.88;9.05;;;;;;;;;;5012879;28;20037;-63
2023/09/01 11:33:22;;;;;;;13.68;9.13;;;;;;;;;;5013867;28;20030;-63
2023/09/01 11:35:47;;;;;;;15.23;8.82;;;;;;;;;;5013505;28;20474;-63
2023/09/01 11:38:19;;;;;;;17.10;9.48;;;;;;;;;;5013621;28;20076;-63
2023/09/01 11:40:45;;;;;;;14.82;9.45;;;;;;;;;;5013110;28;20056;-62
2023/09/01 11:43:10;;;;;;;16.50;9.00;;;;;;;;;;5013578;28;20021;-63
2023/09/01 11:45:44;;;;;;;17.80;9.82;;;;;;;;;;5012956;28;20026;-63
2023/09/01 11:48:09;;;;;;;14.05;9.10;;;;;;;;;;5012390;28;20053;-63
2023/09/01 11:50:36;;;;;;;13.50;7.55;;;;;;;;;;5013764;28;20029;-63
2023/09/01 11:53:02;;;;;;;14.82;7.93;;;;;;;;;;5013347;28;20029;-62
2023/09/01 11:55:28;;;;;;;14.88;8.32;;;;;;;;;;5013490;28;20501;-63
2023/09/01 11:57:53;;;;;;;16.02;7.68;;;;;;;;;;5013136;28;20486;-63
2023/09/01 12:00:28;;;;;;;12.40;6.55;;;;;;;;;;5013377;28;20025;-62
2023/09/01 12:02:54;;;;;;;12.43;6.78;;;;;;;;;;5013197;28;20458;-63
2023/09/01 12:05:27;;;;;;;15.10;6.85;;;;;;;;;;5028097;28;20044;-63
2023/09/01 12:07:53;;;;;;;15.90;8.18;;;;;;;;;;5033091;28;20485;-63
2023/09/01 12:10:30;;;;;;;15.02;8.20;;;;;;;;;;5031682;28;20026;-62
2023/09/01 12:13:02;;;;;;;17.92;7.32;;;;;;;;;;5029753;28;20041;-62
2023/09/01 12:15:27;;;;;;;15.50;7.35;;;;;;;;;;5032303;28;20388;-63
2023/09/01 12:17:53;;;;;;;14.45;6.90;;;;;;;;;;5036047;28;20033;-63
2023/09/01 12:20:18;;;;;;;15.25;7.32;;;;;;;;;;5036917;28;20032;-63
2023/09/01 12:22:43;;;;;;;16.13;6.70;;;;;;;;;;5036351;28;20093;-62
2023/09/01 12:25:09;;;;;;;13.02;6.43;;;;;;;;;;5037066;28;20021;-63
2023/09/01 12:27:34;;;;;;;12.15;6.50;;;;;;;;;;5036459;28;20025;-63
2023/09/01 12:29:59;;;;;;;13.48;6.75;;;;;;;;;;5036668;28;20018;-62
2023/09/01 12:32:27;;;;;;;14.00;6.75;;;;;;;;;;5035941;28;20013;-63
2023/09/01 12:34:53;;;;;;;14.18;6.90;;;;;;;;;;5032613;28;20477;-62
2023/09/01 12:37:18;;;;;;;13.38;6.50;;;;;;;;;;5036519;28;20179;-63
2023/09/01 12:39:43;;;;;;;14.68;7.07;;;;;;;;;;5036502;28;20374;-62
2023/09/01 12:42:09;;;;;;;15.57;7.13;;;;;;;;;;5036099;28;20393;-63
2023/09/01 12:44:35;;;;;;;16.40;6.85;;;;;;;;;;5036414;28;20036;-63
2023/09/01 12:47:00;;;;;;;15.13;6.80;;;;;;;;;;5036049;28;20035;-63
2023/09/01 12:49:25;;;;;;;13.95;6.32;;;;;;;;;;5035773;28;20025;-63
2023/09/01 12:51:50;;;;;;;14.38;5.68;;;;;;;;;;5036058;28;20028;-63
2023/09/01 12:54:16;;;;;;;11.85;5.70;;;;;;;;;;5033289;28;20043;-62
2023/09/01 12:56:43;;;;;;;14.68;5.63;;;;;;;;;;5035810;28;20112;-63
2023/09/01 12:59:08;;;;;;;10.13;5.00;;;;;;;;;;5035831;28;20025;-69
2023/09/01 13:01:33;;;;;;;10.38;5.10;;;;;;;;;;5034982;28;20105;-67
2023/09/01 13:03:59;;;;;;;13.20;5.80;;;;;;;;;;5036075;28;20050;-70
2023/09/01 13:06:24;;;;;;;12.15;5.97;;;;;;;;;;5041310;28;20099;-69
2023/09/01 13:08:49;;;;;;;12.60;6.18;;;;;;;;;;5035264;28;20051;-68
2023/09/01 13:11:15;;;;;;;13.20;5.88;;;;;;;;;;5034667;28;20422;-69
2023/09/01 13:13:40;;;;;;;13.15;6.10;;;;;;;;;;5035580;28;20389;-69
2023/09/01 13:16:06;;;;;;;13.75;6.63;;;;;;;;;;5035135;28;20032;-69
2023/09/01 13:18:31;;;;;;;13.20;6.53;;;;;;;;;;5035246;28;20022;-69
2023/09/01 13:20:56;;;;;;;12.82;6.57;;;;;;;;;;5034063;28;20022;-70
2023/09/01 13:23:21;;;;;;;13.00;6.75;;;;;;;;;;5034715;28;20030;-70
2023/09/01 13:25:47;;;;;;;12.85;7.22;;;;;;;;;;5035497;28;20033;-70
2023/09/01 13:28:12;;;;;;;13.10;7.28;;;;;;;;;;5034862;28;20457;-69
2023/09/01 13:30:37;;;;;;;14.85;7.40;;;;;;;;;;5035545;28;20037;-70
2023/09/01 13:33:03;;;;;;;15.77;7.40;;;;;;;;;;5034793;28;20033;-70
2023/09/01 13:35:28;;;;;;;13.85;7.28;;;;;;;;;;5035543;28;20095;-70
2023/09/01 13:37:53;;;;;;;13.93;7.50;;;;;;;;;;5034855;28;20437;-69
2023/09/01 13:40:19;;;;;;;15.95;7.45;;;;;;;;;;5035127;28;20105;-70
2023/09/01 13:42:44;;;;;;;15.65;8.35;;;;;;;;;;5035800;28;20052;-70
2023/09/01 13:45:09;;;;;;;13.90;8.00;;;;;;;;;;5034508;28;20152;-69
2023/09/01 13:47:34;;;;;;;17.30;7.85;;;;;;;;;;5034415;28;20025;-70
2023/09/01 13:50:00;;;;;;;13.07;7.93;;;;;;;;;;5034691;28;20093;-70
2023/09/01 13:52:25;;;;;;;17.13;7.93;;;;;;;;;;5016650;28;20068;-70
2023/09/01 13:54:51;;;;;;;12.82;7.70;;;;;;;;;;5034432;28;20183;-70
2023/09/01 13:57:16;;;;;;;15.88;7.80;;;;;;;;;;5034307;28;20048;-69
2023/09/01 13:59:42;;;;;;;14.43;7.90;;;;;;;;;;5035037;28;20017;-69
2023/09/01 14:02:07;;;;;;;12.68;7.28;;;;;;;;;;5034089;28;20381;-69
2023/09/01 14:04:32;;;;;;;14.70;7.95;;;;;;;;;;5039869;28;20052;-69
2023/09/01 14:06:57;;;;;;;18.73;7.93;;;;;;;;;;5031558;28;20027;-69
2023/09/01 14:09:22;;;;;;;16.02;7.78;;;;;;;;;;5033847;28;20017;-63
2023/09/01 14:11:48;;;;;;;15.00;7.60;;;;;;;;;;5033934;28;20041;-63
2023/09/01 14:14:13;;;;;;;14.60;7.60;;;;;;;;;;5033688;28;20079;-63
2023/09/01 14:16:38;;;;;;;15.20;7.85;;;;;;;;;;5033164;28;20014;-63
2023/09/01 14:19:03;;;;;;;17.00;8.02;;;;;;;;;;5034600;28;20067;-63